createdAt,value
2022-10-24T00:01:26.277Z,86.96
2022-10-24T00:03:53.528Z,88.29
2022-10-24T00:06:23.658Z,87.68
2022-10-24T00:08:52.111Z,87.02
2022-10-24T00:11:26.647Z,87.38
2022-10-24T00:13:56.734Z,88.06
2022-10-24T00:16:23.921Z,88.39
2022-10-24T00:18:51.058Z,88.84
2022-10-24T00:21:18.413Z,88.60
2022-10-24T00:23:45.982Z,89.21
2022-10-24T00:26:14.436Z,88.61
2022-10-24T00:28:41.681Z,89.56
2022-10-24T00:31:13.749Z,89.52
2022-10-24T00:33:41.775Z,90.93
2022-10-24T00:36:19.656Z,90.20
2022-10-24T00:38:47.131Z,90.08
2022-10-24T00:41:36.196Z,88.68
2022-10-24T00:44:27.250Z,89.31
2022-10-24T00:47:23.474Z,89.58
2022-10-24T00:50:13.580Z,89.43
2022-10-24T00:52:47.737Z,89.78
2022-10-24T00:55:18.283Z,90.40
2022-10-24T00:58:15.487Z,89.07
2022-10-24T01:00:53.559Z,89.50
2022-10-24T01:03:28.891Z,89.60
2022-10-24T01:05:57.522Z,89.92
2022-10-24T01:08:50.420Z,92.15
2022-10-24T01:12:02.202Z,92.28
2022-10-24T01:15:23.514Z,92.86
2022-10-24T01:18:24.802Z,92.41
2022-10-24T01:21:29.665Z,90.45
2022-10-24T01:24:33.017Z,90.12
2022-10-24T01:27:54.208Z,89.24
2022-10-24T01:30:21.951Z,91.19
2022-10-24T01:33:16.020Z,90.16
2022-10-24T01:35:53.794Z,90.29
2022-10-24T01:38:45.917Z,90.79
2022-10-24T01:41:21.247Z,92.06
2022-10-24T01:44:05.209Z,93.34
2022-10-24T01:46:44.693Z,91.41
2022-10-24T01:49:20.719Z,92.10
2022-10-24T01:51:54.517Z,92.46
2022-10-24T01:54:22.015Z,92.67
2022-10-24T01:56:49.717Z,92.30
2022-10-24T01:59:29.013Z,91.27
2022-10-24T02:02:08.895Z,91.43
2022-10-24T02:04:47.210Z,91.85
2022-10-24T02:07:18.744Z,90.70
2022-10-24T02:09:50.888Z,92.10
2022-10-24T02:12:18.567Z,89.69
2022-10-24T02:14:54.078Z,89.56
2022-10-24T02:17:22.397Z,89.75
2022-10-24T02:19:49.909Z,90.82
2022-10-24T02:22:54.804Z,90.68
2022-10-24T02:25:33.683Z,92.43
2022-10-24T02:28:11.599Z,92.19
2022-10-24T02:30:52.088Z,93.08
2022-10-24T02:33:19.982Z,92.69
2022-10-24T02:35:48.719Z,92.91
2022-10-24T02:38:17.670Z,92.71
2022-10-24T02:40:46.342Z,91.64
2022-10-24T02:43:14.775Z,92.42
2022-10-24T02:45:41.871Z,92.53
2022-10-24T02:48:15.823Z,92.92
2022-10-24T02:50:44.276Z,92.32
2022-10-24T02:53:18.914Z,93.64
2022-10-24T02:55:46.564Z,94.05
2022-10-24T02:58:13.596Z,93.67
2022-10-24T03:00:40.786Z,93.20
2022-10-24T03:03:08.003Z,92.80
2022-10-24T03:05:42.104Z,91.74
2022-10-24T03:08:12.894Z,92.17
2022-10-24T03:10:40.227Z,91.76
2022-10-24T03:13:07.286Z,92.49
2022-10-24T03:15:34.443Z,92.00
2022-10-24T03:18:03.983Z,92.40
2022-10-24T03:20:31.325Z,91.73
2022-10-24T03:23:01.797Z,92.21
2022-10-24T03:25:28.892Z,92.25
2022-10-24T03:27:55.958Z,91.45
2022-10-24T03:30:23.583Z,90.64
2022-10-24T03:32:50.732Z,91.09
2022-10-24T03:35:18.542Z,91.42
2022-10-24T03:37:45.823Z,90.53
2022-10-24T03:40:13.458Z,90.74
2022-10-24T03:42:40.743Z,90.28
2022-10-24T03:45:08.881Z,89.89
2022-10-24T03:47:36.119Z,89.76
2022-10-24T03:50:04.500Z,89.04
2022-10-24T03:52:31.874Z,89.00
2022-10-24T03:54:59.037Z,90.07
2022-10-24T03:57:26.370Z,90.54
2022-10-24T03:59:53.485Z,89.92
2022-10-24T04:02:20.690Z,91.30
2022-10-24T04:04:50.208Z,90.82
2022-10-24T04:07:17.356Z,90.11
2022-10-24T04:09:45.121Z,89.55
2022-10-24T04:12:14.603Z,89.54
2022-10-24T04:14:41.946Z,89.68
2022-10-24T04:17:12.031Z,89.08
2022-10-24T04:19:39.206Z,88.00
2022-10-24T04:22:09.060Z,88.72
2022-10-24T04:24:39.516Z,89.32
2022-10-24T04:28:08.522Z,87.63
2022-10-24T04:30:38.077Z,87.20
2022-10-24T04:33:05.210Z,87.64
2022-10-24T04:35:32.307Z,88.00
2022-10-24T04:37:59.479Z,87.79
2022-10-24T04:40:29.087Z,88.04
2022-10-24T04:42:56.665Z,88.82
2022-10-24T04:45:23.800Z,88.22
2022-10-24T04:47:50.863Z,89.05
2022-10-24T04:50:18.010Z,88.11
2022-10-24T04:52:45.078Z,88.25
2022-10-24T04:55:12.222Z,87.40
2022-10-24T04:57:39.397Z,88.11
2022-10-24T05:00:07.597Z,87.24
2022-10-24T05:02:34.680Z,87.23
2022-10-24T05:05:01.823Z,85.66
2022-10-24T05:07:31.277Z,86.68
2022-10-24T05:09:58.510Z,87.82
2022-10-24T05:12:25.724Z,87.94
2022-10-24T05:14:52.743Z,87.55
2022-10-24T05:17:19.868Z,87.68
2022-10-24T05:19:47.230Z,86.95
2022-10-24T05:22:14.369Z,87.88
2022-10-24T05:24:41.524Z,87.58
2022-10-24T05:27:08.592Z,87.64
2022-10-24T05:29:37.001Z,88.47
2022-10-24T05:32:08.097Z,86.99
2022-10-24T05:34:37.585Z,87.38
2022-10-24T05:37:05.696Z,87.32
2022-10-24T05:39:32.845Z,87.65
2022-10-24T05:41:59.963Z,88.31
2022-10-24T05:44:27.108Z,88.27
2022-10-24T05:46:54.406Z,88.09
2022-10-24T05:49:21.573Z,88.35
2022-10-24T05:51:48.801Z,87.81
2022-10-24T05:54:16.498Z,89.25
2022-10-24T05:56:43.544Z,87.73
2022-10-24T05:59:10.709Z,87.63
2022-10-24T06:01:40.829Z,88.27
2022-10-24T06:04:11.347Z,88.08
2022-10-24T06:06:44.698Z,87.60
2022-10-24T06:09:13.099Z,87.63
2022-10-24T06:11:40.403Z,86.90
2022-10-24T06:14:07.456Z,86.49
2022-10-24T06:16:35.121Z,86.38
2022-10-24T06:19:02.190Z,86.44
2022-10-24T06:21:29.424Z,86.24
2022-10-24T06:23:56.549Z,86.90
2022-10-24T06:26:26.180Z,87.33
2022-10-24T06:28:54.762Z,87.83
2022-10-24T06:31:21.929Z,87.15
2022-10-24T06:33:49.251Z,88.25
2022-10-24T06:36:16.357Z,87.30
2022-10-24T06:38:45.620Z,85.47
2022-10-24T06:41:17.108Z,86.21
2022-10-24T06:43:46.934Z,85.44
2022-10-24T06:46:16.796Z,86.42
2022-10-24T06:48:44.654Z,89.41
2022-10-24T06:51:16.216Z,88.11
2022-10-24T06:53:43.296Z,88.42
2022-10-24T06:56:10.520Z,87.69
2022-10-24T06:58:38.854Z,88.23
2022-10-24T07:01:17.733Z,88.41
2022-10-24T07:03:46.079Z,88.62
2022-10-24T07:08:59.947Z,91.89
2022-10-24T07:11:28.111Z,90.64
2022-10-24T07:14:00.788Z,90.67
2022-10-24T07:16:29.643Z,92.57
2022-10-24T07:18:57.085Z,91.21
2022-10-24T07:21:29.793Z,91.00
2022-10-24T07:24:00.034Z,90.38
2022-10-24T07:26:31.191Z,91.11
2022-10-24T07:31:33.582Z,89.22
2022-10-24T07:34:03.680Z,89.14
2022-10-24T07:36:30.855Z,88.36
2022-10-24T07:38:59.978Z,87.85
2022-10-24T07:41:30.671Z,88.49
2022-10-24T07:44:00.052Z,88.65
2022-10-24T07:46:27.067Z,88.47
2022-10-24T07:48:58.209Z,89.18
2022-10-24T07:51:28.124Z,87.84
2022-10-24T07:53:56.496Z,88.48
2022-10-24T07:56:23.527Z,87.42
2022-10-24T07:58:50.670Z,87.76
2022-10-24T08:01:22.421Z,86.97
2022-10-24T08:03:49.864Z,86.44
2022-10-24T08:06:24.471Z,85.14
2022-10-24T08:08:51.703Z,84.35
2022-10-24T08:11:22.761Z,82.59
2022-10-24T08:13:53.989Z,82.78
2022-10-24T08:16:23.033Z,84.13
2022-10-24T08:18:52.552Z,81.56
2022-10-24T08:21:22.191Z,81.14
2022-10-24T08:23:52.586Z,80.70
2022-10-24T08:26:23.326Z,80.50
2022-10-24T08:28:51.553Z,79.77
2022-10-24T08:31:22.400Z,80.47
2022-10-24T08:33:55.845Z,80.16
2022-10-24T08:36:28.848Z,79.36
2022-10-24T08:38:59.069Z,80.40
2022-10-24T08:41:35.750Z,78.95
2022-10-24T08:44:35.745Z,78.92
2022-10-24T08:47:24.514Z,79.94
2022-10-24T08:50:10.168Z,76.20
2022-10-24T08:52:47.865Z,74.09
2022-10-24T08:55:44.400Z,74.61
2022-10-24T08:58:21.114Z,76.45
2022-10-24T09:00:52.532Z,76.51
2022-10-24T09:03:56.595Z,77.88
2022-10-24T09:06:31.610Z,77.01
2022-10-24T09:09:13.206Z,77.46
2022-10-24T09:11:54.999Z,77.04
2022-10-24T09:14:33.924Z,76.05
2022-10-24T09:17:33.441Z,73.46
2022-10-24T09:20:33.438Z,72.54
2022-10-24T09:23:04.672Z,70.81
2022-10-24T09:25:38.427Z,68.63
2022-10-24T09:28:06.955Z,67.96
2022-10-24T09:30:36.768Z,69.32
2022-10-24T09:33:31.442Z,67.02
2022-10-24T09:36:04.815Z,69.76
2022-10-24T09:38:38.610Z,69.85
2022-10-24T09:41:21.152Z,67.54
2022-10-24T09:43:57.169Z,67.36
2022-10-24T09:46:45.192Z,66.62
2022-10-24T09:49:22.761Z,65.69
2022-10-24T09:52:17.755Z,63.62
2022-10-24T09:54:46.482Z,63.16
2022-10-24T09:57:18.079Z,60.08
2022-10-24T09:59:59.151Z,55.87
2022-10-24T10:02:34.525Z,55.75
2022-10-24T10:05:04.349Z,58.80
2022-10-24T10:07:34.441Z,58.35
2022-10-24T10:10:08.093Z,57.66
2022-10-24T10:12:39.086Z,59.26
2022-10-24T10:15:30.877Z,52.22
2022-10-24T10:18:42.834Z,51.77
2022-10-24T10:21:20.010Z,52.83
2022-10-24T10:23:56.149Z,49.30
2022-10-24T10:26:58.854Z,49.00
2022-10-24T10:29:26.114Z,52.33
2022-10-24T10:32:22.768Z,51.71
2022-10-24T10:35:19.817Z,49.37
2022-10-24T10:37:58.967Z,47.27
2022-10-24T10:40:45.291Z,44.84
2022-10-24T10:43:37.369Z,44.43
2022-10-24T10:46:16.840Z,42.79
2022-10-24T10:48:52.660Z,45.90
2022-10-24T10:51:31.614Z,40.61
2022-10-24T10:54:00.088Z,39.91
2022-10-24T10:57:03.046Z,38.78
2022-10-24T11:00:01.524Z,44.50
2022-10-24T11:02:52.171Z,43.18
2022-10-24T11:06:08.054Z,44.22
2022-10-24T11:08:42.130Z,45.24
2022-10-24T11:11:43.496Z,44.42
2022-10-24T11:14:31.801Z,46.42
2022-10-24T11:17:38.435Z,46.20
2022-10-24T11:20:48.241Z,46.01
2022-10-24T11:23:39.052Z,45.98
2022-10-24T11:26:40.304Z,46.14
2022-10-24T11:29:40.998Z,48.70
2022-10-24T11:32:24.057Z,49.37
2022-10-24T11:35:27.034Z,53.90
2022-10-24T11:38:24.620Z,54.04
2022-10-24T11:41:24.186Z,54.95
2022-10-24T11:43:55.114Z,55.78
2022-10-24T11:46:47.216Z,56.85
2022-10-24T11:49:39.642Z,56.74
2022-10-24T11:52:39.750Z,60.04
2022-10-24T11:55:24.066Z,60.52
2022-10-24T11:58:00.289Z,61.68
2022-10-24T12:00:56.513Z,60.96
2022-10-24T12:03:42.275Z,59.07
2022-10-24T12:06:30.785Z,60.26
2022-10-24T12:09:38.160Z,59.35
2022-10-24T12:12:13.525Z,59.57
2022-10-24T12:14:54.497Z,60.98
2022-10-24T12:18:34.030Z,58.34
2022-10-24T12:21:10.802Z,57.18
2022-10-24T12:23:40.323Z,58.46
2022-10-24T12:26:30.330Z,57.35
2022-10-24T12:29:04.107Z,57.35
2022-10-24T12:31:41.724Z,58.10
2022-10-24T12:34:22.911Z,57.68
2022-10-24T12:37:12.540Z,55.46
2022-10-24T12:39:47.598Z,56.13
2022-10-24T12:42:23.766Z,56.58
2022-10-24T12:44:51.389Z,57.98
2022-10-24T12:47:39.118Z,54.30
2022-10-24T12:50:21.747Z,53.83
2022-10-24T12:52:48.889Z,54.47
2022-10-24T12:55:51.190Z,55.61
2022-10-24T12:58:45.595Z,54.81
2022-10-24T13:01:39.030Z,56.41
2022-10-24T13:04:40.239Z,58.89
2022-10-24T13:07:48.341Z,59.72
2022-10-24T13:11:09.688Z,61.92
2022-10-24T13:14:08.994Z,62.09
2022-10-24T13:17:08.185Z,62.02
2022-10-24T13:19:36.625Z,63.99
2022-10-24T13:22:36.219Z,64.87
2022-10-24T13:25:33.545Z,64.73
2022-10-24T13:28:24.788Z,62.78
2022-10-24T13:31:17.839Z,63.66
2022-10-24T13:33:47.760Z,65.78
2022-10-24T13:36:28.522Z,65.30
2022-10-24T13:39:01.982Z,65.17
2022-10-24T13:41:39.483Z,64.93
2022-10-24T13:44:15.039Z,64.88
2022-10-24T13:47:07.761Z,63.98
2022-10-24T13:50:24.065Z,65.36
2022-10-24T13:52:57.801Z,66.48
2022-10-24T13:55:46.631Z,65.53
2022-10-24T13:58:44.359Z,65.41
2022-10-24T14:01:28.286Z,66.33
2022-10-24T14:03:57.484Z,69.04
2022-10-24T14:06:33.895Z,67.62
2022-10-24T14:09:10.388Z,68.40
2022-10-24T14:11:44.993Z,70.11
2022-10-24T14:14:40.189Z,70.31
2022-10-24T14:17:22.781Z,71.44
2022-10-24T14:20:13.442Z,72.51
2022-10-24T14:22:41.962Z,73.76
2022-10-24T14:25:36.560Z,72.37
2022-10-24T14:28:17.743Z,73.55
2022-10-24T14:31:01.553Z,73.97
2022-10-24T14:33:42.568Z,74.66
2022-10-24T14:36:10.367Z,75.06
2022-10-24T14:38:37.843Z,75.81
2022-10-24T14:41:10.198Z,75.09
2022-10-24T14:43:42.454Z,75.92
2022-10-24T14:46:12.802Z,76.14
2022-10-24T14:48:48.933Z,75.15
2022-10-24T14:51:43.128Z,74.34
2022-10-24T14:54:21.939Z,74.37
2022-10-24T14:56:50.391Z,75.96
2022-10-24T14:59:30.110Z,74.22
2022-10-24T15:02:03.556Z,76.77
2022-10-24T15:04:45.908Z,77.39
2022-10-24T15:07:30.423Z,76.72
2022-10-24T15:10:00.286Z,78.72
2022-10-24T15:12:40.231Z,77.78
2022-10-24T15:15:31.903Z,78.32
2022-10-24T15:18:29.983Z,76.58
2022-10-24T15:21:14.188Z,77.38
2022-10-24T15:23:57.338Z,77.57
2022-10-24T15:26:45.002Z,76.96
2022-10-24T15:29:15.197Z,77.54
2022-10-24T15:31:48.752Z,76.87
2022-10-24T15:34:22.326Z,76.40
2022-10-24T15:36:52.019Z,77.45
2022-10-24T15:39:26.047Z,77.50
2022-10-24T15:41:54.242Z,77.94
2022-10-24T15:44:29.718Z,79.25
2022-10-24T15:46:57.577Z,79.66
2022-10-24T15:49:24.972Z,79.32
2022-10-24T15:51:52.255Z,80.07
2022-10-24T15:54:22.256Z,80.94
2022-10-24T15:56:52.363Z,80.70
2022-10-24T15:59:26.702Z,80.46
2022-10-24T16:02:00.499Z,80.65
2022-10-24T16:04:29.199Z,79.86
2022-10-24T16:06:59.170Z,81.33
2022-10-24T16:09:27.910Z,80.25
2022-10-24T16:11:55.792Z,79.06
2022-10-24T16:14:30.403Z,77.65
2022-10-24T16:17:00.314Z,77.85
2022-10-24T16:19:29.816Z,79.46
2022-10-24T16:22:01.050Z,79.91
2022-10-24T16:24:30.859Z,80.84
2022-10-24T16:26:58.015Z,80.38
2022-10-24T16:29:27.504Z,78.67
2022-10-24T16:31:54.575Z,79.70
2022-10-24T16:34:21.660Z,80.76
2022-10-24T16:36:54.736Z,80.30
2022-10-24T16:39:21.969Z,81.58
2022-10-24T16:41:54.430Z,81.80
2022-10-24T16:44:23.969Z,82.29
2022-10-24T16:46:55.470Z,80.99
2022-10-24T16:49:25.097Z,80.25
2022-10-24T16:51:52.292Z,81.93
2022-10-24T16:54:20.670Z,82.30
2022-10-24T16:56:53.621Z,83.05
2022-10-24T16:59:21.388Z,81.23
2022-10-24T17:01:48.605Z,80.64
2022-10-24T17:04:15.745Z,80.49
2022-10-24T17:06:42.790Z,80.24
2022-10-24T17:09:09.829Z,80.39
2022-10-24T17:11:45.377Z,80.46
2022-10-24T17:14:16.312Z,79.32
2022-10-24T17:16:44.416Z,80.63
2022-10-24T17:19:16.613Z,80.88
2022-10-24T17:21:48.599Z,80.43
2022-10-24T17:24:19.699Z,80.87
2022-10-24T17:26:48.657Z,80.39
2022-10-24T17:29:26.750Z,80.52
2022-10-24T17:31:55.106Z,80.58
2022-10-24T17:34:23.204Z,79.37
2022-10-24T17:37:14.344Z,80.23
2022-10-24T17:39:54.662Z,79.50
2022-10-24T17:42:22.443Z,80.58
2022-10-24T17:44:49.855Z,80.50
2022-10-24T17:47:17.362Z,80.43
2022-10-24T17:49:45.493Z,80.12
2022-10-24T17:52:19.957Z,80.28
2022-10-24T17:54:49.709Z,80.19
2022-10-24T17:57:16.877Z,80.46
2022-10-24T17:59:44.510Z,80.19
2022-10-24T18:02:15.214Z,79.28
2022-10-24T18:04:44.753Z,79.52
2022-10-24T18:07:12.071Z,79.06
2022-10-24T18:09:40.237Z,79.45
2022-10-24T18:12:10.719Z,79.39
2022-10-24T18:14:38.015Z,79.60
2022-10-24T18:17:09.012Z,79.18
2022-10-24T18:19:40.718Z,79.95
2022-10-24T18:22:07.846Z,79.35
2022-10-24T18:24:37.172Z,79.11
2022-10-24T18:27:06.495Z,78.86
2022-10-24T18:29:33.685Z,78.93
2022-10-24T18:32:03.460Z,78.72
2022-10-24T18:34:30.541Z,78.96
2022-10-24T18:36:57.645Z,79.76
2022-10-24T18:39:27.663Z,79.76
2022-10-24T18:42:03.759Z,78.61
2022-10-24T18:44:34.397Z,78.83
2022-10-24T18:47:05.651Z,78.95
2022-10-24T18:49:35.147Z,79.10
2022-10-24T18:52:48.898Z,78.81
2022-10-24T18:55:26.129Z,78.57
2022-10-24T18:57:54.384Z,79.52
2022-10-24T19:00:25.170Z,79.69
2022-10-24T19:03:30.097Z,79.60
2022-10-24T19:06:25.721Z,79.77
2022-10-24T19:08:53.036Z,80.32
2022-10-24T19:11:24.725Z,80.66
2022-10-24T19:13:52.122Z,80.26
2022-10-24T19:16:28.737Z,79.29
2022-10-24T19:19:00.755Z,79.90
2022-10-24T19:21:27.846Z,80.59
2022-10-24T19:23:55.100Z,79.84
2022-10-24T19:26:22.287Z,80.55
2022-10-24T19:28:49.698Z,81.04
2022-10-24T19:31:19.413Z,80.71
2022-10-24T19:33:50.393Z,80.38
2022-10-24T19:36:19.387Z,80.87
2022-10-24T19:38:55.744Z,79.83
2022-10-24T19:41:26.415Z,79.75
2022-10-24T19:43:57.120Z,80.55
2022-10-24T19:46:24.857Z,80.40
2022-10-24T19:48:53.385Z,80.05
2022-10-24T19:51:25.402Z,80.14
2022-10-24T19:53:53.017Z,81.02
2022-10-24T19:56:26.906Z,80.55
2022-10-24T19:58:55.511Z,81.54
2022-10-24T20:01:26.476Z,80.24
2022-10-24T20:03:56.421Z,80.20
2022-10-24T20:06:26.405Z,80.43
2022-10-24T20:08:54.002Z,80.01
2022-10-24T20:11:22.121Z,79.63
2022-10-24T20:13:53.116Z,79.85
2022-10-24T20:16:20.470Z,80.92
2022-10-24T20:18:47.985Z,79.73
2022-10-24T20:21:19.494Z,79.89
2022-10-24T20:23:48.409Z,79.71
2022-10-24T20:26:25.959Z,78.84
2022-10-24T20:28:55.579Z,80.54
2022-10-24T20:31:31.208Z,79.55
2022-10-24T20:34:07.785Z,79.37
2022-10-24T20:36:40.368Z,79.97
2022-10-24T20:39:13.871Z,79.56
2022-10-24T20:41:42.267Z,80.12
2022-10-24T20:44:09.988Z,79.09
2022-10-24T20:46:37.279Z,79.38
2022-10-24T20:49:04.627Z,79.29
2022-10-24T20:51:31.967Z,79.94
2022-10-24T20:54:07.218Z,79.27
2022-10-24T20:56:35.904Z,79.84
2022-10-24T20:59:09.316Z,79.28
2022-10-24T21:01:36.683Z,79.37
2022-10-24T21:04:03.903Z,79.29
2022-10-24T21:06:34.548Z,78.36
2022-10-24T21:09:11.763Z,78.35
2022-10-24T21:11:42.457Z,78.33
2022-10-24T21:14:14.565Z,78.57
2022-10-24T21:16:41.902Z,77.99
2022-10-24T21:19:08.961Z,77.95
2022-10-24T21:21:40.703Z,78.02
2022-10-24T21:24:08.341Z,78.09
2022-10-24T21:26:39.411Z,78.47
2022-10-24T21:29:31.262Z,79.60
2022-10-24T21:31:55.338Z,79.57
2022-10-24T21:34:23.148Z,79.56
2022-10-24T21:36:50.381Z,79.84
2022-10-24T21:39:22.311Z,78.78
2022-10-24T21:41:49.452Z,78.67
2022-10-24T21:44:19.106Z,80.01
2022-10-24T21:46:48.297Z,79.62
2022-10-24T21:49:15.414Z,78.82
2022-10-24T21:51:43.896Z,79.57
2022-10-24T21:54:19.760Z,78.61
2022-10-24T21:56:46.986Z,79.84
2022-10-24T21:59:19.728Z,78.04
2022-10-24T22:01:49.172Z,78.29
2022-10-24T22:04:19.935Z,78.25
2022-10-24T22:06:50.629Z,78.57
2022-10-24T22:09:23.827Z,78.34
2022-10-24T22:11:51.089Z,79.27
2022-10-24T22:14:21.094Z,77.81
2022-10-24T22:16:48.174Z,78.58
2022-10-24T22:19:16.143Z,77.46
2022-10-24T22:21:47.582Z,77.89
2022-10-24T22:24:21.621Z,77.79
2022-10-24T22:26:52.366Z,78.10
2022-10-24T22:29:23.412Z,77.68
2022-10-24T22:31:52.696Z,77.92
2022-10-24T22:34:25.989Z,78.11
2022-10-24T22:39:58.612Z,78.40
2022-10-24T22:42:28.678Z,78.53
2022-10-24T22:44:58.486Z,78.61
2022-10-24T22:48:03.137Z,77.92
2022-10-24T22:50:47.675Z,77.80
2022-10-24T22:53:18.487Z,78.14
2022-10-24T22:56:06.526Z,78.40
2022-10-24T22:58:34.084Z,78.55
2022-10-24T23:01:29.743Z,77.98
2022-10-24T23:04:06.212Z,78.63
2022-10-24T23:07:07.492Z,78.58
2022-10-24T23:09:34.521Z,79.19
2022-10-24T23:12:02.013Z,79.07
2022-10-24T23:14:29.532Z,79.63
2022-10-24T23:17:03.862Z,79.72
2022-10-24T23:19:32.698Z,78.94
2022-10-24T23:22:30.382Z,78.43
2022-10-24T23:25:01.011Z,80.01
2022-10-24T23:27:39.333Z,79.01
2022-10-24T23:30:20.454Z,79.22
2022-10-24T23:32:49.355Z,80.20
2022-10-24T23:35:19.698Z,80.27
2022-10-24T23:37:50.520Z,79.59
2022-10-24T23:40:17.491Z,79.97
2022-10-24T23:42:46.437Z,80.51
2022-10-24T23:45:16.273Z,79.21
2022-10-24T23:48:09.333Z,78.70
2022-10-24T23:51:31.109Z,78.11
2022-10-24T23:53:59.088Z,79.93
2022-10-24T23:56:32.548Z,79.63
2022-10-24T23:58:59.621Z,80.62
